sensor_id;sensor_type;location;lat;lon;timestamp;temperature;humidity
6174;DHT22;3120;48.796;9.796;2023-08-21T00:44:29;22.40;99.90
6174;DHT22;3120;48.796;9.796;2023-08-21T00:46:54;22.50;99.90
6174;DHT22;3120;48.796;9.796;2023-08-21T00:49:20;22.50;99.90
6174;DHT22;3120;48.796;9.796;2023-08-21T00:51:46;22.40;99.90
6174;DHT22;3120;48.796;9.796;2023-08-21T00:54:12;22.30;99.90
6174;DHT22;3120;48.796;9.796;2023-08-21T00:56:38;22.30;99.90
6174;DHT22;3120;48.796;9.796;2023-08-21T00:59:03;22.30;99.90
6174;DHT22;3120;48.796;9.796;2023-08-21T01:01:29;22.30;99.90
6174;DHT22;3120;48.796;9.796;2023-08-21T01:03:55;22.20;99.90
6174;DHT22;3120;48.796;9.796;2023-08-21T01:06:20;22.20;99.90
6174;DHT22;3120;48.796;9.796;2023-08-21T01:08:48;22.20;99.90
6174;DHT22;3120;48.796;9.796;2023-08-21T01:11:18;22.30;99.90
6174;DHT22;3120;48.796;9.796;2023-08-21T01:13:59;22.30;99.90
6174;DHT22;3120;48.796;9.796;2023-08-21T01:16:26;22.20;99.90
6174;DHT22;3120;48.796;9.796;2023-08-21T01:18:53;22.20;99.90
6174;DHT22;3120;48.796;9.796;2023-08-21T01:21:19;22.20;99.90
6174;DHT22;3120;48.796;9.796;2023-08-21T01:23:45;22.10;99.90
6174;DHT22;3120;48.796;9.796;2023-08-21T01:26:10;22.10;99.90
6174;DHT22;3120;48.796;9.796;2023-08-21T01:28:36;22.20;99.90
6174;DHT22;3120;48.796;9.796;2023-08-21T01:33:30;22.20;99.90
6174;DHT22;3120;48.796;9.796;2023-08-21T01:35:58;22.30;99.90
6174;DHT22;3120;48.796;9.796;2023-08-21T01:38:24;22.20;99.90
6174;DHT22;3120;48.796;9.796;2023-08-21T01:40:50;22.20;99.90
6174;DHT22;3120;48.796;9.796;2023-08-21T01:43:15;22.10;99.90
6174;DHT22;3120;48.796;9.796;2023-08-21T01:45:41;22.00;99.90
6174;DHT22;3120;48.796;9.796;2023-08-21T01:48:06;22.00;99.90
6174;DHT22;3120;48.796;9.796;2023-08-21T01:50:32;21.90;99.90
6174;DHT22;3120;48.796;9.796;2023-08-21T01:52:57;21.80;99.90
6174;DHT22;3120;48.796;9.796;2023-08-21T01:55:23;21.80;99.90
6174;DHT22;3120;48.796;9.796;2023-08-21T01:57:48;21.80;99.90
6174;DHT22;3120;48.796;9.796;2023-08-21T02:00:13;21.70;99.90
6174;DHT22;3120;48.796;9.796;2023-08-21T02:02:39;21.80;99.90
6174;DHT22;3120;48.796;9.796;2023-08-21T02:05:05;21.80;99.90
6174;DHT22;3120;48.796;9.796;2023-08-21T02:07:30;21.90;99.90
6174;DHT22;3120;48.796;9.796;2023-08-21T02:09:56;21.80;99.90
6174;DHT22;3120;48.796;9.796;2023-08-21T02:12:21;21.70;99.90
6174;DHT22;3120;48.796;9.796;2023-08-21T02:14:47;21.70;99.90
6174;DHT22;3120;48.796;9.796;2023-08-21T02:17:12;21.80;99.90
6174;DHT22;3120;48.796;9.796;2023-08-21T02:19:38;21.80;99.90
6174;DHT22;3120;48.796;9.796;2023-08-21T02:22:03;21.80;99.90
6174;DHT22;3120;48.796;9.796;2023-08-21T02:24:29;21.80;99.90
6174;DHT22;3120;48.796;9.796;2023-08-21T02:26:54;21.80;99.90
6174;DHT22;3120;48.796;9.796;2023-08-21T02:29:20;21.80;99.90
6174;DHT22;3120;48.796;9.796;2023-08-21T02:31:45;21.80;99.90
6174;DHT22;3120;48.796;9.796;2023-08-21T02:34:11;21.60;99.90
6174;DHT22;3120;48.796;9.796;2023-08-21T02:36:36;21.70;99.90
6174;DHT22;3120;48.796;9.796;2023-08-21T02:39:02;21.70;99.90
6174;DHT22;3120;48.796;9.796;2023-08-21T02:41:29;21.70;99.90
6174;DHT22;3120;48.796;9.796;2023-08-21T02:43:54;21.70;99.90
6174;DHT22;3120;48.796;9.796;2023-08-21T02:46:20;21.70;99.90
6174;DHT22;3120;48.796;9.796;2023-08-21T02:48:45;21.70;99.90
6174;DHT22;3120;48.796;9.796;2023-08-21T02:51:10;21.60;99.90
6174;DHT22;3120;48.796;9.796;2023-08-21T02:53:36;21.60;99.90
6174;DHT22;3120;48.796;9.796;2023-08-21T02:56:01;21.50;99.90
6174;DHT22;3120;48.796;9.796;2023-08-21T02:58:27;21.40;99.90
6174;DHT22;3120;48.796;9.796;2023-08-21T03:00:53;21.50;99.90
6174;DHT22;3120;48.796;9.796;2023-08-21T03:03:18;21.40;99.90
6174;DHT22;3120;48.796;9.796;2023-08-21T03:05:44;21.50;99.90
6174;DHT22;3120;48.796;9.796;2023-08-21T03:08:09;21.60;99.90
6174;DHT22;3120;48.796;9.796;2023-08-21T03:10:35;21.50;99.90
6174;DHT22;3120;48.796;9.796;2023-08-21T03:13:02;21.40;99.90
6174;DHT22;3120;48.796;9.796;2023-08-21T03:15:27;21.40;99.90
6174;DHT22;3120;48.796;9.796;2023-08-21T03:17:54;21.40;99.90
6174;DHT22;3120;48.796;9.796;2023-08-21T03:20:19;21.40;99.90
6174;DHT22;3120;48.796;9.796;2023-08-21T03:22:45;21.30;99.90
6174;DHT22;3120;48.796;9.796;2023-08-21T03:25:11;21.40;99.90
6174;DHT22;3120;48.796;9.796;2023-08-21T03:27:36;21.40;99.90
6174;DHT22;3120;48.796;9.796;2023-08-21T03:30:06;21.30;99.90
6174;DHT22;3120;48.796;9.796;2023-08-21T03:32:32;21.30;99.90
6174;DHT22;3120;48.796;9.796;2023-08-21T03:34:58;21.30;99.90
6174;DHT22;3120;48.796;9.796;2023-08-21T03:37:23;21.20;99.90
6174;DHT22;3120;48.796;9.796;2023-08-21T03:39:48;21.10;99.90
6174;DHT22;3120;48.796;9.796;2023-08-21T03:42:14;21.10;99.90
6174;DHT22;3120;48.796;9.796;2023-08-21T03:44:39;21.00;99.90
6174;DHT22;3120;48.796;9.796;2023-08-21T03:47:05;21.00;99.90
6174;DHT22;3120;48.796;9.796;2023-08-21T03:49:30;21.10;99.90
6174;DHT22;3120;48.796;9.796;2023-08-21T03:51:56;21.00;99.90
6174;DHT22;3120;48.796;9.796;2023-08-21T03:54:21;21.00;99.90
6174;DHT22;3120;48.796;9.796;2023-08-21T03:56:47;21.00;99.90
6174;DHT22;3120;48.796;9.796;2023-08-21T03:59:12;20.90;99.90
6174;DHT22;3120;48.796;9.796;2023-08-21T04:01:38;20.80;99.90
6174;DHT22;3120;48.796;9.796;2023-08-21T04:04:03;20.80;99.90
6174;DHT22;3120;48.796;9.796;2023-08-21T04:06:29;20.80;99.90
6174;DHT22;3120;48.796;9.796;2023-08-21T04:08:54;20.80;99.90
6174;DHT22;3120;48.796;9.796;2023-08-21T04:11:20;20.80;99.90
6174;DHT22;3120;48.796;9.796;2023-08-21T04:13:45;20.80;99.90
6174;DHT22;3120;48.796;9.796;2023-08-21T04:16:11;20.80;99.90
6174;DHT22;3120;48.796;9.796;2023-08-21T04:18:37;20.90;99.90
6174;DHT22;3120;48.796;9.796;2023-08-21T04:21:04;20.80;99.90
6174;DHT22;3120;48.796;9.796;2023-08-21T04:23:29;20.80;99.90
6174;DHT22;3120;48.796;9.796;2023-08-21T04:26:01;20.70;99.90
6174;DHT22;3120;48.796;9.796;2023-08-21T04:28:29;20.70;99.90
6174;DHT22;3120;48.796;9.796;2023-08-21T04:30:55;20.80;99.90
6174;DHT22;3120;48.796;9.796;2023-08-21T04:33:24;20.80;99.90
6174;DHT22;3120;48.796;9.796;2023-08-21T04:35:49;20.90;99.90
6174;DHT22;3120;48.796;9.796;2023-08-21T04:38:15;20.80;99.90
6174;DHT22;3120;48.796;9.796;2023-08-21T04:40:40;20.80;99.90
6174;DHT22;3120;48.796;9.796;2023-08-21T04:43:06;20.80;99.90
6174;DHT22;3120;48.796;9.796;2023-08-21T04:45:31;20.80;99.90
6174;DHT22;3120;48.796;9.796;2023-08-21T04:47:57;20.80;99.90
6174;DHT22;3120;48.796;9.796;2023-08-21T04:50:22;20.80;99.90
6174;DHT22;3120;48.796;9.796;2023-08-21T04:52:47;20.80;99.90
6174;DHT22;3120;48.796;9.796;2023-08-21T04:55:14;20.80;99.90
6174;DHT22;3120;48.796;9.796;2023-08-21T04:57:39;20.90;99.90
6174;DHT22;3120;48.796;9.796;2023-08-21T05:00:05;20.90;99.90
6174;DHT22;3120;48.796;9.796;2023-08-21T05:02:31;20.80;99.90
6174;DHT22;3120;48.796;9.796;2023-08-21T05:04:56;20.80;99.90
6174;DHT22;3120;48.796;9.796;2023-08-21T05:07:22;20.90;99.90
6174;DHT22;3120;48.796;9.796;2023-08-21T05:09:47;20.90;99.90
6174;DHT22;3120;48.796;9.796;2023-08-21T05:12:12;20.90;99.90
6174;DHT22;3120;48.796;9.796;2023-08-21T05:14:38;21.10;99.90
6174;DHT22;3120;48.796;9.796;2023-08-21T05:17:03;21.10;99.90
6174;DHT22;3120;48.796;9.796;2023-08-21T05:19:29;21.10;99.90
6174;DHT22;3120;48.796;9.796;2023-08-21T05:21:55;21.10;99.90
6174;DHT22;3120;48.796;9.796;2023-08-21T05:24:20;21.20;99.90
6174;DHT22;3120;48.796;9.796;2023-08-21T05:26:46;21.20;99.90
6174;DHT22;3120;48.796;9.796;2023-08-21T05:29:11;21.30;99.90
6174;DHT22;3120;48.796;9.796;2023-08-21T05:31:36;21.30;99.90
6174;DHT22;3120;48.796;9.796;2023-08-21T05:34:03;21.30;99.90
6174;DHT22;3120;48.796;9.796;2023-08-21T05:36:28;21.40;99.90
6174;DHT22;3120;48.796;9.796;2023-08-21T05:38:56;21.40;99.90
6174;DHT22;3120;48.796;9.796;2023-08-21T05:41:21;21.40;99.90
6174;DHT22;3120;48.796;9.796;2023-08-21T05:43:47;21.50;99.90
6174;DHT22;3120;48.796;9.796;2023-08-21T05:46:13;21.50;99.90
6174;DHT22;3120;48.796;9.796;2023-08-21T05:48:38;21.60;99.90
6174;DHT22;3120;48.796;9.796;2023-08-21T05:51:04;21.60;99.90
6174;DHT22;3120;48.796;9.796;2023-08-21T05:53:30;21.60;99.90
6174;DHT22;3120;48.796;9.796;2023-08-21T05:55:55;21.70;99.90
6174;DHT22;3120;48.796;9.796;2023-08-21T05:58:21;21.70;99.90
6174;DHT22;3120;48.796;9.796;2023-08-21T06:00:48;21.80;99.90
6174;DHT22;3120;48.796;9.796;2023-08-21T06:03:13;21.90;99.90
6174;DHT22;3120;48.796;9.796;2023-08-21T06:05:39;22.00;99.90
6174;DHT22;3120;48.796;9.796;2023-08-21T06:08:04;22.00;99.90
6174;DHT22;3120;48.796;9.796;2023-08-21T06:10:33;22.10;99.90
6174;DHT22;3120;48.796;9.796;2023-08-21T06:12:58;22.20;99.90
6174;DHT22;3120;48.796;9.796;2023-08-21T06:15:24;22.30;99.90
6174;DHT22;3120;48.796;9.796;2023-08-21T06:17:49;22.60;99.90
6174;DHT22;3120;48.796;9.796;2023-08-21T06:20:15;22.60;99.90
6174;DHT22;3120;48.796;9.796;2023-08-21T06:22:40;22.70;99.90
6174;DHT22;3120;48.796;9.796;2023-08-21T06:25:09;22.90;99.90
6174;DHT22;3120;48.796;9.796;2023-08-21T06:27:34;23.00;99.90
6174;DHT22;3120;48.796;9.796;2023-08-21T06:30:00;23.10;99.90
6174;DHT22;3120;48.796;9.796;2023-08-21T06:32:25;23.40;99.90
6174;DHT22;3120;48.796;9.796;2023-08-21T06:34:50;23.40;99.90
6174;DHT22;3120;48.796;9.796;2023-08-21T06:37:16;23.60;99.90
6174;DHT22;3120;48.796;9.796;2023-08-21T06:39:41;23.80;99.90
6174;DHT22;3120;48.796;9.796;2023-08-21T06:42:07;23.90;99.90
6174;DHT22;3120;48.796;9.796;2023-08-21T06:44:32;24.00;99.90
6174;DHT22;3120;48.796;9.796;2023-08-21T06:46:58;24.00;99.90
6174;DHT22;3120;48.796;9.796;2023-08-21T06:49:23;24.00;99.90
6174;DHT22;3120;48.796;9.796;2023-08-21T06:51:49;24.50;99.90
6174;DHT22;3120;48.796;9.796;2023-08-21T06:54:15;24.40;99.90
6174;DHT22;3120;48.796;9.796;2023-08-21T06:56:40;24.50;99.90
6174;DHT22;3120;48.796;9.796;2023-08-21T06:59:06;24.60;99.90
6174;DHT22;3120;48.796;9.796;2023-08-21T07:01:31;24.80;99.90
6174;DHT22;3120;48.796;9.796;2023-08-21T07:03:57;24.80;99.90
6174;DHT22;3120;48.796;9.796;2023-08-21T07:06:22;24.80;99.90
6174;DHT22;3120;48.796;9.796;2023-08-21T07:08:48;24.80;99.90
6174;DHT22;3120;48.796;9.796;2023-08-21T07:11:13;25.20;99.90
6174;DHT22;3120;48.796;9.796;2023-08-21T07:13:38;25.00;99.90
6174;DHT22;3120;48.796;9.796;2023-08-21T07:16:04;25.20;99.90
6174;DHT22;3120;48.796;9.796;2023-08-21T07:18:34;25.40;99.90
6174;DHT22;3120;48.796;9.796;2023-08-21T07:21:00;25.50;99.90
6174;DHT22;3120;48.796;9.796;2023-08-21T07:23:26;25.70;99.90
6174;DHT22;3120;48.796;9.796;2023-08-21T07:25:51;25.60;99.90
6174;DHT22;3120;48.796;9.796;2023-08-21T07:28:17;25.80;99.90
6174;DHT22;3120;48.796;9.796;2023-08-21T07:30:42;25.90;99.90
6174;DHT22;3120;48.796;9.796;2023-08-21T07:33:08;26.10;99.90
6174;DHT22;3120;48.796;9.796;2023-08-21T07:35:34;26.20;99.90
6174;DHT22;3120;48.796;9.796;2023-08-21T07:37:59;26.40;99.90
6174;DHT22;3120;48.796;9.796;2023-08-21T07:40:24;26.50;99.90
6174;DHT22;3120;48.796;9.796;2023-08-21T07:42:50;26.50;99.90
6174;DHT22;3120;48.796;9.796;2023-08-21T07:45:16;26.60;99.90
6174;DHT22;3120;48.796;9.796;2023-08-21T07:47:41;26.70;99.90
6174;DHT22;3120;48.796;9.796;2023-08-21T07:50:07;26.70;99.70
6174;DHT22;3120;48.796;9.796;2023-08-21T07:52:33;26.70;99.90
6174;DHT22;3120;48.796;9.796;2023-08-21T07:54:59;26.70;99.50
6174;DHT22;3120;48.796;9.796;2023-08-21T07:57:26;26.80;99.00
6174;DHT22;3120;48.796;9.796;2023-08-21T07:59:51;26.90;95.90
6174;DHT22;3120;48.796;9.796;2023-08-21T08:02:17;27.00;95.60
6174;DHT22;3120;48.796;9.796;2023-08-21T08:04:43;27.20;94.70
6174;DHT22;3120;48.796;9.796;2023-08-21T08:07:08;27.10;94.80
6174;DHT22;3120;48.796;9.796;2023-08-21T08:09:34;27.30;94.40
6174;DHT22;3120;48.796;9.796;2023-08-21T08:11:59;27.30;94.30
6174;DHT22;3120;48.796;9.796;2023-08-21T08:14:25;27.40;93.90
6174;DHT22;3120;48.796;9.796;2023-08-21T08:16:50;27.40;93.50
6174;DHT22;3120;48.796;9.796;2023-08-21T08:19:16;27.70;92.20
6174;DHT22;3120;48.796;9.796;2023-08-21T08:21:41;27.80;92.00
6174;DHT22;3120;48.796;9.796;2023-08-21T08:24:07;28.00;91.20
6174;DHT22;3120;48.796;9.796;2023-08-21T08:26:32;28.20;90.40
6174;DHT22;3120;48.796;9.796;2023-08-21T08:28:58;28.40;88.50
6174;DHT22;3120;48.796;9.796;2023-08-21T08:31:23;28.60;88.00
6174;DHT22;3120;48.796;9.796;2023-08-21T08:33:50;29.10;87.10
6174;DHT22;3120;48.796;9.796;2023-08-21T08:36:16;29.10;87.80
6174;DHT22;3120;48.796;9.796;2023-08-21T08:38:41;29.70;81.90
6174;DHT22;3120;48.796;9.796;2023-08-21T08:41:14;30.00;81.70
6174;DHT22;3120;48.796;9.796;2023-08-21T08:43:42;29.90;82.00
6174;DHT22;3120;48.796;9.796;2023-08-21T08:46:08;30.20;79.00
6174;DHT22;3120;48.796;9.796;2023-08-21T08:48:35;30.50;77.00
6174;DHT22;3120;48.796;9.796;2023-08-21T08:51:01;30.20;78.70
6174;DHT22;3120;48.796;9.796;2023-08-21T08:53:29;30.50;77.00
6174;DHT22;3120;48.796;9.796;2023-08-21T08:55:55;30.70;76.60
6174;DHT22;3120;48.796;9.796;2023-08-21T08:58:20;30.70;75.30
6174;DHT22;3120;48.796;9.796;2023-08-21T09:00:45;30.90;76.40
6174;DHT22;3120;48.796;9.796;2023-08-21T09:03:11;30.90;74.80
6174;DHT22;3120;48.796;9.796;2023-08-21T09:05:38;31.00;75.40
6174;DHT22;3120;48.796;9.796;2023-08-21T09:10:30;31.30;73.40
6174;DHT22;3120;48.796;9.796;2023-08-21T09:12:56;31.40;72.70
6174;DHT22;3120;48.796;9.796;2023-08-21T09:15:27;31.10;75.00
6174;DHT22;3120;48.796;9.796;2023-08-21T09:17:53;31.00;74.70
6174;DHT22;3120;48.796;9.796;2023-08-21T09:20:19;31.10;72.40
6174;DHT22;3120;48.796;9.796;2023-08-21T09:22:52;31.20;71.90
6174;DHT22;3120;48.796;9.796;2023-08-21T09:25:18;31.10;72.00
6174;DHT22;3120;48.796;9.796;2023-08-21T09:27:43;31.00;73.10
6174;DHT22;3120;48.796;9.796;2023-08-21T09:30:09;30.80;72.80
6174;DHT22;3120;48.796;9.796;2023-08-21T09:32:56;30.70;75.60
6174;DHT22;3120;48.796;9.796;2023-08-21T09:35:23;30.70;72.90
6174;DHT22;3120;48.796;9.796;2023-08-21T09:37:48;31.00;72.50
6174;DHT22;3120;48.796;9.796;2023-08-21T09:40:17;31.10;72.90
6174;DHT22;3120;48.796;9.796;2023-08-21T09:42:43;31.00;73.20
6174;DHT22;3120;48.796;9.796;2023-08-21T09:45:08;31.30;71.90
6174;DHT22;3120;48.796;9.796;2023-08-21T09:47:34;31.70;72.30
6174;DHT22;3120;48.796;9.796;2023-08-21T09:50:00;32.20;73.00
6174;DHT22;3120;48.796;9.796;2023-08-21T09:52:25;32.50;70.40
6174;DHT22;3120;48.796;9.796;2023-08-21T09:54:54;33.40;65.80
6174;DHT22;3120;48.796;9.796;2023-08-21T09:57:22;34.10;61.60
6174;DHT22;3120;48.796;9.796;2023-08-21T09:59:48;35.30;57.90
6174;DHT22;3120;48.796;9.796;2023-08-21T10:02:17;35.70;56.10
6174;DHT22;3120;48.796;9.796;2023-08-21T10:04:43;35.40;56.70
6174;DHT22;3120;48.796;9.796;2023-08-21T10:07:10;35.90;55.60
6174;DHT22;3120;48.796;9.796;2023-08-21T10:09:36;36.30;54.70
6174;DHT22;3120;48.796;9.796;2023-08-21T10:12:02;36.40;54.20
6174;DHT22;3120;48.796;9.796;2023-08-21T10:14:28;35.90;56.60
6174;DHT22;3120;48.796;9.796;2023-08-21T10:16:53;36.40;54.40
6174;DHT22;3120;48.796;9.796;2023-08-21T10:19:19;36.60;54.50
6174;DHT22;3120;48.796;9.796;2023-08-21T10:21:48;36.40;56.20
6174;DHT22;3120;48.796;9.796;2023-08-21T10:24:25;37.20;51.80
6174;DHT22;3120;48.796;9.796;2023-08-21T10:26:51;38.50;49.10
6174;DHT22;3120;48.796;9.796;2023-08-21T10:29:16;39.30;47.70
6174;DHT22;3120;48.796;9.796;2023-08-21T10:31:42;39.70;46.70
6174;DHT22;3120;48.796;9.796;2023-08-21T10:34:10;39.20;47.10
6174;DHT22;3120;48.796;9.796;2023-08-21T10:39:20;39.80;45.70
6174;DHT22;3120;48.796;9.796;2023-08-21T10:41:53;39.90;45.20
6174;DHT22;3120;48.796;9.796;2023-08-21T10:44:33;39.70;45.20
6174;DHT22;3120;48.796;9.796;2023-08-21T10:47:15;40.20;44.40
6174;DHT22;3120;48.796;9.796;2023-08-21T10:49:42;40.00;43.50
6174;DHT22;3120;48.796;9.796;2023-08-21T10:52:08;37.90;44.20
6174;DHT22;3120;48.796;9.796;2023-08-21T10:57:30;36.40;47.20
6174;DHT22;3120;48.796;9.796;2023-08-21T10:59:56;35.80;49.60
6174;DHT22;3120;48.796;9.796;2023-08-21T11:02:23;35.60;49.30
6174;DHT22;3120;48.796;9.796;2023-08-21T11:04:49;34.80;51.90
6174;DHT22;3120;48.796;9.796;2023-08-21T11:07:15;34.30;53.60
6174;DHT22;3120;48.796;9.796;2023-08-21T11:09:40;34.60;52.70
6174;DHT22;3120;48.796;9.796;2023-08-21T11:12:07;36.30;49.00
6174;DHT22;3120;48.796;9.796;2023-08-21T11:14:32;37.90;46.00
6174;DHT22;3120;48.796;9.796;2023-08-21T11:16:59;38.80;45.10
6174;DHT22;3120;48.796;9.796;2023-08-21T11:19:24;39.30;42.80
6174;DHT22;3120;48.796;9.796;2023-08-21T11:21:53;39.20;43.00
6174;DHT22;3120;48.796;9.796;2023-08-21T11:24:18;39.60;42.20
6174;DHT22;3120;48.796;9.796;2023-08-21T11:26:43;39.90;42.50
6174;DHT22;3120;48.796;9.796;2023-08-21T11:29:09;40.40;41.00
6174;DHT22;3120;48.796;9.796;2023-08-21T11:31:34;40.90;39.90
6174;DHT22;3120;48.796;9.796;2023-08-21T11:34:00;40.80;41.10
6174;DHT22;3120;48.796;9.796;2023-08-21T11:36:25;41.20;39.40
6174;DHT22;3120;48.796;9.796;2023-08-21T11:38:58;40.70;40.50
6174;DHT22;3120;48.796;9.796;2023-08-21T11:41:24;41.40;38.70
6174;DHT22;3120;48.796;9.796;2023-08-21T11:43:49;41.60;39.30
6174;DHT22;3120;48.796;9.796;2023-08-21T11:46:15;42.00;40.20
6174;DHT22;3120;48.796;9.796;2023-08-21T11:48:43;42.40;38.10
6174;DHT22;3120;48.796;9.796;2023-08-21T11:51:10;43.30;37.40
6174;DHT22;3120;48.796;9.796;2023-08-21T11:56:01;43.90;35.10
6174;DHT22;3120;48.796;9.796;2023-08-21T11:58:27;43.70;35.20
6174;DHT22;3120;48.796;9.796;2023-08-21T12:00:53;43.70;34.80
6174;DHT22;3120;48.796;9.796;2023-08-21T12:03:19;42.90;36.60
6174;DHT22;3120;48.796;9.796;2023-08-21T12:05:45;41.40;40.00
6174;DHT22;3120;48.796;9.796;2023-08-21T12:08:10;40.50;41.80
6174;DHT22;3120;48.796;9.796;2023-08-21T12:10:36;40.00;41.70
6174;DHT22;3120;48.796;9.796;2023-08-21T12:13:01;40.10;43.30
6174;DHT22;3120;48.796;9.796;2023-08-21T12:15:27;40.60;41.90
6174;DHT22;3120;48.796;9.796;2023-08-21T12:17:52;40.50;41.20
6174;DHT22;3120;48.796;9.796;2023-08-21T12:20:18;40.60;40.30
6174;DHT22;3120;48.796;9.796;2023-08-21T12:22:43;40.60;43.90
6174;DHT22;3120;48.796;9.796;2023-08-21T12:25:09;40.70;42.30
6174;DHT22;3120;48.796;9.796;2023-08-21T12:27:38;40.80;40.50
6174;DHT22;3120;48.796;9.796;2023-08-21T12:30:04;40.20;41.60
6174;DHT22;3120;48.796;9.796;2023-08-21T12:32:30;40.60;40.00
6174;DHT22;3120;48.796;9.796;2023-08-21T12:34:55;41.10;39.60
6174;DHT22;3120;48.796;9.796;2023-08-21T12:37:21;40.60;40.60
6174;DHT22;3120;48.796;9.796;2023-08-21T12:39:46;40.10;42.00
6174;DHT22;3120;48.796;9.796;2023-08-21T12:42:12;40.00;40.70
6174;DHT22;3120;48.796;9.796;2023-08-21T12:44:38;41.00;38.50
6174;DHT22;3120;48.796;9.796;2023-08-21T12:47:03;41.80;38.80
6174;DHT22;3120;48.796;9.796;2023-08-21T12:49:29;41.50;40.70
6174;DHT22;3120;48.796;9.796;2023-08-21T12:51:54;41.40;38.90
6174;DHT22;3120;48.796;9.796;2023-08-21T12:54:20;41.30;39.20
6174;DHT22;3120;48.796;9.796;2023-08-21T12:56:46;41.00;40.30
6174;DHT22;3120;48.796;9.796;2023-08-21T12:59:13;41.40;39.80
6174;DHT22;3120;48.796;9.796;2023-08-21T13:01:39;41.10;39.80
6174;DHT22;3120;48.796;9.796;2023-08-21T13:04:04;41.40;40.00
6174;DHT22;3120;48.796;9.796;2023-08-21T13:06:30;41.80;39.50
6174;DHT22;3120;48.796;9.796;2023-08-21T13:08:55;42.00;40.20
6174;DHT22;3120;48.796;9.796;2023-08-21T13:11:21;42.50;36.70
6174;DHT22;3120;48.796;9.796;2023-08-21T13:13:47;43.70;34.30
6174;DHT22;3120;48.796;9.796;2023-08-21T13:16:12;43.10;37.10
6174;DHT22;3120;48.796;9.796;2023-08-21T13:18:39;41.60;38.10
6174;DHT22;3120;48.796;9.796;2023-08-21T13:21:04;41.90;38.50
6174;DHT22;3120;48.796;9.796;2023-08-21T13:36:21;41.20;38.70
6174;DHT22;3120;48.796;9.796;2023-08-21T13:38:50;40.90;38.40
6174;DHT22;3120;48.796;9.796;2023-08-21T13:41:15;41.30;38.80
6174;DHT22;3120;48.796;9.796;2023-08-21T13:43:44;41.00;39.60
6174;DHT22;3120;48.796;9.796;2023-08-21T13:46:09;41.10;38.60
6174;DHT22;3120;48.796;9.796;2023-08-21T13:48:35;41.60;37.40
6174;DHT22;3120;48.796;9.796;2023-08-21T13:51:00;41.00;37.60
6174;DHT22;3120;48.796;9.796;2023-08-21T13:53:26;40.70;39.40
6174;DHT22;3120;48.796;9.796;2023-08-21T13:55:51;40.90;38.90
6174;DHT22;3120;48.796;9.796;2023-08-21T13:58:17;41.20;36.00
6174;DHT22;3120;48.796;9.796;2023-08-21T14:00:42;41.30;37.30
6174;DHT22;3120;48.796;9.796;2023-08-21T14:03:09;41.30;38.30
6174;DHT22;3120;48.796;9.796;2023-08-21T14:05:35;41.40;40.30
6174;DHT22;3120;48.796;9.796;2023-08-21T14:08:00;41.80;35.80
6174;DHT22;3120;48.796;9.796;2023-08-21T14:10:35;42.10;37.50
6174;DHT22;3120;48.796;9.796;2023-08-21T14:13:01;43.30;34.30
6174;DHT22;3120;48.796;9.796;2023-08-21T14:15:28;43.40;32.50
6174;DHT22;3120;48.796;9.796;2023-08-21T14:17:54;43.50;33.20
6174;DHT22;3120;48.796;9.796;2023-08-21T14:20:19;43.40;33.30
6174;DHT22;3120;48.796;9.796;2023-08-21T14:22:45;42.30;37.20
6174;DHT22;3120;48.796;9.796;2023-08-21T14:25:10;41.60;37.20
6174;DHT22;3120;48.796;9.796;2023-08-21T14:27:36;41.30;38.80
6174;DHT22;3120;48.796;9.796;2023-08-21T14:32:34;42.20;35.10
6174;DHT22;3120;48.796;9.796;2023-08-21T14:35:00;41.90;39.00
6174;DHT22;3120;48.796;9.796;2023-08-21T14:37:25;41.20;37.70
6174;DHT22;3120;48.796;9.796;2023-08-21T14:39:50;41.60;36.60
6174;DHT22;3120;48.796;9.796;2023-08-21T14:42:16;41.50;35.80
6174;DHT22;3120;48.796;9.796;2023-08-21T14:44:41;42.10;34.90
6174;DHT22;3120;48.796;9.796;2023-08-21T14:47:07;42.00;37.20
6174;DHT22;3120;48.796;9.796;2023-08-21T14:49:33;41.00;37.50
6174;DHT22;3120;48.796;9.796;2023-08-21T14:51:58;41.60;36.90
6174;DHT22;3120;48.796;9.796;2023-08-21T14:54:24;41.60;36.00
6174;DHT22;3120;48.796;9.796;2023-08-21T14:56:50;41.00;37.40
6174;DHT22;3120;48.796;9.796;2023-08-21T14:59:15;40.90;36.90
6174;DHT22;3120;48.796;9.796;2023-08-21T15:01:41;40.80;36.80
6174;DHT22;3120;48.796;9.796;2023-08-21T15:04:07;40.70;37.40
6174;DHT22;3120;48.796;9.796;2023-08-21T15:06:33;41.20;35.70
6174;DHT22;3120;48.796;9.796;2023-08-21T15:08:59;41.40;35.10
6174;DHT22;3120;48.796;9.796;2023-08-21T15:11:24;40.90;37.20
6174;DHT22;3120;48.796;9.796;2023-08-21T15:13:49;40.00;39.20
6174;DHT22;3120;48.796;9.796;2023-08-21T15:16:15;40.20;39.80
6174;DHT22;3120;48.796;9.796;2023-08-21T15:18:41;40.40;38.40
6174;DHT22;3120;48.796;9.796;2023-08-21T15:21:06;40.60;38.60
6174;DHT22;3120;48.796;9.796;2023-08-21T15:23:32;40.60;38.10
6174;DHT22;3120;48.796;9.796;2023-08-21T15:25:57;40.30;38.10
6174;DHT22;3120;48.796;9.796;2023-08-21T15:28:23;40.50;40.10
6174;DHT22;3120;48.796;9.796;2023-08-21T15:30:49;40.30;38.90
6174;DHT22;3120;48.796;9.796;2023-08-21T15:33:14;40.30;38.40
6174;DHT22;3120;48.796;9.796;2023-08-21T15:35:40;40.60;37.80
6174;DHT22;3120;48.796;9.796;2023-08-21T15:38:07;40.10;37.90
6174;DHT22;3120;48.796;9.796;2023-08-21T15:40:32;40.40;37.10
6174;DHT22;3120;48.796;9.796;2023-08-21T15:42:58;40.30;37.40
6174;DHT22;3120;48.796;9.796;2023-08-21T15:45:26;39.80;37.50
6174;DHT22;3120;48.796;9.796;2023-08-21T15:47:52;39.40;38.90
6174;DHT22;3120;48.796;9.796;2023-08-21T15:50:17;39.50;40.00
6174;DHT22;3120;48.796;9.796;2023-08-21T15:52:48;39.40;38.40
6174;DHT22;3120;48.796;9.796;2023-08-21T15:55:14;39.80;39.30
6174;DHT22;3120;48.796;9.796;2023-08-21T15:57:39;39.50;39.30
6174;DHT22;3120;48.796;9.796;2023-08-21T16:00:05;39.50;38.10
6174;DHT22;3120;48.796;9.796;2023-08-21T16:02:31;39.40;38.00
6174;DHT22;3120;48.796;9.796;2023-08-21T16:04:56;39.40;37.50
6174;DHT22;3120;48.796;9.796;2023-08-21T16:07:22;39.60;37.50
6174;DHT22;3120;48.796;9.796;2023-08-21T16:09:47;39.20;38.70
6174;DHT22;3120;48.796;9.796;2023-08-21T16:12:13;39.30;39.30
6174;DHT22;3120;48.796;9.796;2023-08-21T16:14:39;39.80;37.30
6174;DHT22;3120;48.796;9.796;2023-08-21T16:17:04;40.20;37.90
6174;DHT22;3120;48.796;9.796;2023-08-21T16:19:32;40.20;36.30
6174;DHT22;3120;48.796;9.796;2023-08-21T16:21:58;40.10;36.40
6174;DHT22;3120;48.796;9.796;2023-08-21T16:24:24;40.40;36.10
6174;DHT22;3120;48.796;9.796;2023-08-21T16:26:50;39.80;38.30
6174;DHT22;3120;48.796;9.796;2023-08-21T16:29:15;39.00;38.70
6174;DHT22;3120;48.796;9.796;2023-08-21T16:31:43;39.30;39.20
6174;DHT22;3120;48.796;9.796;2023-08-21T16:34:09;39.30;38.50
6174;DHT22;3120;48.796;9.796;2023-08-21T16:36:36;39.20;39.00
6174;DHT22;3120;48.796;9.796;2023-08-21T16:39:02;38.70;40.10
6174;DHT22;3120;48.796;9.796;2023-08-21T16:41:28;38.60;41.10
6174;DHT22;3120;48.796;9.796;2023-08-21T16:43:53;38.40;40.70
6174;DHT22;3120;48.796;9.796;2023-08-21T16:46:19;38.50;40.00
6174;DHT22;3120;48.796;9.796;2023-08-21T16:48:44;39.00;39.30
6174;DHT22;3120;48.796;9.796;2023-08-21T16:51:10;38.60;40.50
6174;DHT22;3120;48.796;9.796;2023-08-21T16:53:35;38.80;40.20
6174;DHT22;3120;48.796;9.796;2023-08-21T16:56:01;38.60;39.90
6174;DHT22;3120;48.796;9.796;2023-08-21T16:58:26;38.50;40.90
6174;DHT22;3120;48.796;9.796;2023-08-21T17:00:52;38.00;41.20
6174;DHT22;3120;48.796;9.796;2023-08-21T17:03:18;37.60;42.40
6174;DHT22;3120;48.796;9.796;2023-08-21T17:05:47;37.20;42.50